Terminal Aerodrome Forecast
Issued by NWS

Home | Current Version | Previous Version | Graphics & Text | Print | Product List | Glossary On
Versions: 1 2 3 4 5 6 7 8 9 10 11 12 13 14 15 16 17 18 19 20 21
000
FTUS42 KMHX 032031 AAB
TAFISO
TAF AMD
KISO 032031Z 0321/0418 11005KT 2SM BR OVC015
     FM040000 15008KT 4SM -RA BR OVC007 WS020/22035KT
     FM040400 22010KT 3SM BR OVC004
     FM041500 23011G18KT P6SM OVC010
      AMD LTD TO CLD VIS AND WIND=

USA.gov is the U.S. government's official web portal to all federal, state and local government web resources and services.